createdAt,value
2023-03-14T05:14:49.128Z,99217.78
2023-03-14T05:17:53.924Z,99210.53
2023-03-14T05:20:56.575Z,99208.13
2023-03-14T05:24:00.454Z,99201.63
2023-03-14T05:27:06.004Z,99209.44
2023-03-14T05:30:10.384Z,99204.66
2023-03-14T05:33:14.291Z,99211.56
2023-03-14T05:36:17.435Z,99208.50
2023-03-14T05:39:20.515Z,99210.06
2023-03-14T05:42:24.030Z,99210.47
2023-03-14T05:45:27.137Z,99196.81
2023-03-14T05:48:30.432Z,99198.78
2023-03-14T05:51:33.503Z,99195.41
2023-03-14T05:54:36.608Z,99200.22
2023-03-14T05:57:39.785Z,99186.78
2023-03-14T06:00:46.085Z,99197.50
2023-03-14T06:03:49.854Z,99196.38
2023-03-14T06:06:52.683Z,99195.44
2023-03-14T06:09:56.529Z,99203.91
2023-03-14T06:12:59.485Z,99205.09
2023-03-14T06:16:02.352Z,99206.75
2023-03-14T06:19:05.622Z,99196.41
2023-03-14T06:22:08.925Z,99194.47
2023-03-14T06:25:12.452Z,99204.62
2023-03-14T06:28:16.419Z,99196.75
2023-03-14T06:31:19.045Z,99200.72
2023-03-14T06:34:23.084Z,99204.88
2023-03-14T06:37:25.673Z,99202.97
2023-03-14T06:40:31.443Z,99185.75
2023-03-14T06:43:35.041Z,99191.97
2023-03-14T06:46:38.547Z,99196.62
2023-03-14T06:49:41.189Z,99187.91
2023-03-14T06:52:48.888Z,99186.06
2023-03-14T06:55:52.210Z,99195.59
2023-03-14T06:58:55.485Z,99189.09
2023-03-14T07:01:59.204Z,99182.12
2023-03-14T07:05:04.828Z,99178.91
2023-03-14T07:08:08.828Z,99182.84
2023-03-14T07:11:12.331Z,99182.81
2023-03-14T07:14:15.296Z,99179.81
2023-03-14T07:17:18.484Z,99184.66
2023-03-14T07:20:21.612Z,99174.62
2023-03-14T07:23:24.997Z,99183.69
2023-03-14T07:26:27.957Z,99182.38
2023-03-14T07:29:31.209Z,99178.00
2023-03-14T07:32:35.005Z,99174.97
2023-03-14T07:35:38.427Z,99172.94
2023-03-14T07:38:41.454Z,99169.25
2023-03-14T07:41:44.857Z,99165.03
2023-03-14T07:44:54.813Z,99162.44
2023-03-14T07:47:58.614Z,99157.50
2023-03-14T07:51:01.620Z,99160.13
2023-03-14T07:54:04.649Z,99146.63
2023-03-14T07:57:07.216Z,99153.13
2023-03-14T08:00:13.713Z,99146.09
2023-03-14T08:03:18.139Z,99150.41
2023-03-14T08:06:21.118Z,99144.62
2023-03-14T08:09:24.013Z,99145.19
2023-03-14T08:12:26.973Z,99137.88
2023-03-14T08:15:31.165Z,99127.47
2023-03-14T08:18:34.545Z,99124.37
2023-03-14T08:21:37.058Z,99122.28
2023-03-14T08:24:40.327Z,99112.84
2023-03-14T08:27:43.972Z,99116.50
2023-03-14T08:30:47.983Z,99118.63
2023-03-14T08:33:53.122Z,99112.09
2023-03-14T08:36:57.821Z,99110.50
2023-03-14T08:40:00.620Z,99106.34
2023-03-14T08:43:03.697Z,99108.84
2023-03-14T08:46:06.700Z,99106.69
2023-03-14T08:49:09.656Z,99106.34
2023-03-14T08:52:12.673Z,99097.19
2023-03-14T08:55:15.660Z,99085.75
2023-03-14T08:58:18.346Z,99080.28
2023-03-14T09:01:25.123Z,99071.50
2023-03-14T09:04:27.959Z,99066.22
2023-03-14T09:07:31.138Z,99058.25
2023-03-14T09:10:34.066Z,99044.50
2023-03-14T09:13:37.281Z,99051.50
2023-03-14T09:16:39.937Z,99056.91
2023-03-14T09:19:42.955Z,99057.22
2023-03-14T09:22:45.585Z,99051.78
2023-03-14T09:25:48.553Z,99045.97
2023-03-14T09:28:51.064Z,99042.50
2023-03-14T09:31:54.194Z,99042.88
2023-03-14T09:34:57.246Z,99025.53
2023-03-14T09:38:00.092Z,99014.59
2023-03-14T09:41:04.592Z,99022.78
2023-03-14T09:44:17.249Z,99021.34
2023-03-14T09:47:21.056Z,99018.66
2023-03-14T09:50:24.906Z,99016.81
2023-03-14T09:53:40.384Z,99004.97
2023-03-14T09:56:43.168Z,98993.72
2023-03-14T09:59:47.440Z,98983.38
2023-03-14T10:02:54.950Z,98994.47
2023-03-14T10:05:58.024Z,98973.19
2023-03-14T10:09:00.599Z,98963.47
2023-03-14T10:12:08.859Z,98952.22
2023-03-14T10:15:18.853Z,98947.84
2023-03-14T10:18:26.015Z,98942.97
2023-03-14T10:21:31.171Z,98945.25
2023-03-14T10:24:35.764Z,98923.50
2023-03-14T10:27:38.313Z,98909.53
2023-03-14T10:30:46.386Z,98903.87
2023-03-14T10:34:04.117Z,98903.87
2023-03-14T10:37:17.764Z,98894.00
2023-03-14T10:40:28.450Z,98895.31
2023-03-14T10:43:36.756Z,98879.13
2023-03-14T10:46:39.873Z,98883.28
2023-03-14T10:50:15.686Z,98895.25
2023-03-14T10:53:19.735Z,98873.97
2023-03-14T10:56:24.708Z,98884.41
2023-03-14T10:59:37.750Z,98875.59
2023-03-14T11:02:40.329Z,98877.19
2023-03-14T11:06:07.942Z,98868.25
2023-03-14T11:09:21.929Z,98854.59
2023-03-14T11:12:43.302Z,98852.34
2023-03-14T11:15:58.679Z,98845.50
2023-03-14T11:19:23.511Z,98844.41
2023-03-14T11:22:51.712Z,98833.75
2023-03-14T11:25:54.536Z,98831.25
2023-03-14T11:29:14.184Z,98820.37
2023-03-14T11:32:39.286Z,98816.12
2023-03-14T11:35:54.211Z,98807.81
2023-03-14T11:38:59.143Z,98790.91
2023-03-14T11:42:04.704Z,98793.47
2023-03-14T11:45:20.057Z,98793.75
2023-03-14T11:48:37.956Z,98783.25
2023-03-14T11:51:45.538Z,98766.87
2023-03-14T11:54:55.043Z,98769.53
2023-03-14T11:58:02.877Z,98769.13
2023-03-14T12:01:12.269Z,98763.06
2023-03-14T12:04:38.296Z,98758.81
2023-03-14T12:07:47.718Z,98753.44
2023-03-14T12:10:54.665Z,98750.53
2023-03-14T12:13:57.249Z,98744.59
2023-03-14T12:17:19.684Z,98737.84
2023-03-14T12:20:25.614Z,98737.78
2023-03-14T12:23:35.345Z,98732.66
2023-03-14T12:27:02.458Z,98731.53
2023-03-14T12:30:18.525Z,98721.22
2023-03-14T12:33:32.267Z,98716.84
2023-03-14T12:37:10.458Z,98717.09
2023-03-14T12:40:33.743Z,98705.44
2023-03-14T12:43:38.268Z,98710.63
2023-03-14T12:46:40.931Z,98697.06
2023-03-14T12:49:44.580Z,98699.19
2023-03-14T12:53:08.880Z,98687.09
2023-03-14T12:56:20.685Z,98678.16
2023-03-14T12:59:29.259Z,98678.84
2023-03-14T13:02:46.009Z,98682.78
2023-03-14T13:06:04.270Z,98682.94
2023-03-14T13:09:30.523Z,98677.78
2023-03-14T13:12:41.195Z,98676.28
2023-03-14T13:15:47.514Z,98670.56
2023-03-14T13:18:59.813Z,98669.06
2023-03-14T13:22:06.313Z,98668.09
2023-03-14T13:25:11.734Z,98681.19
2023-03-14T13:28:15.568Z,98682.19
2023-03-14T13:31:25.632Z,98686.22
2023-03-14T13:34:34.304Z,98701.34
2023-03-14T13:37:40.703Z,98698.84
2023-03-14T13:40:46.152Z,98703.72
2023-03-14T13:43:49.500Z,98715.13
2023-03-14T13:46:52.440Z,98702.22
2023-03-14T13:49:58.709Z,98706.88
2023-03-14T13:53:03.853Z,98693.50
2023-03-14T13:56:10.909Z,98703.72
2023-03-14T13:59:26.994Z,98708.25
2023-03-14T14:02:31.359Z,98703.38
2023-03-14T14:05:38.530Z,98707.75
2023-03-14T14:08:42.965Z,98713.13
2023-03-14T14:12:16.834Z,98704.34
2023-03-14T14:15:27.287Z,98696.63
2023-03-14T14:18:33.421Z,98694.81
2023-03-14T14:21:36.340Z,98693.47
2023-03-14T14:24:40.526Z,98695.28
2023-03-14T14:27:49.470Z,98689.03
2023-03-14T14:31:19.466Z,98684.84
2023-03-14T14:34:22.111Z,98695.59
2023-03-14T14:37:30.652Z,98692.91
2023-03-14T14:40:34.661Z,98691.25
2023-03-14T14:43:41.303Z,98688.09
2023-03-14T14:46:44.119Z,98690.25
2023-03-14T14:49:48.796Z,98690.78
2023-03-14T14:53:00.928Z,98688.41
2023-03-14T14:56:26.434Z,98679.50
2023-03-14T14:59:32.590Z,98684.84
2023-03-14T15:02:46.613Z,98684.72
2023-03-14T15:05:49.412Z,98690.13
2023-03-14T15:08:55.701Z,98684.56
2023-03-14T15:11:58.246Z,98691.44
2023-03-14T15:15:00.988Z,98688.63
2023-03-14T15:18:03.684Z,98693.16
2023-03-14T15:21:06.525Z,98699.63
2023-03-14T15:24:10.837Z,98706.69
2023-03-14T15:27:16.207Z,98715.72
2023-03-14T15:30:19.492Z,98716.38
2023-03-14T15:33:26.953Z,98720.50
2023-03-14T15:36:33.058Z,98736.37
2023-03-14T15:39:36.289Z,98722.53
2023-03-14T15:42:38.938Z,98730.00
2023-03-14T15:45:42.641Z,98724.78
2023-03-14T15:48:46.544Z,98744.00
2023-03-14T15:51:49.925Z,98770.94
2023-03-14T15:54:52.472Z,98781.44
2023-03-14T15:57:55.369Z,98783.44
2023-03-14T16:00:58.026Z,98804.66
2023-03-14T16:04:03.174Z,98800.03
2023-03-14T16:07:05.763Z,98807.34
2023-03-14T16:10:12.348Z,98807.66
2023-03-14T16:13:15.754Z,98813.56
2023-03-14T16:16:18.653Z,98811.84
2023-03-14T16:19:21.360Z,98808.16
